Hurlburt Field
KHRT : now visible

Airfield :











YOU CAN JOIN US ON...

 
LOGIN :

Register | Disclaimer

   EN    FR    IT 

 









Legend :    VFR   Marginal VFR   IFR   Intensive IFR   Very Intensive IFR
Visi :
Ceiling :
>= 8 km
>= 3000ft
5 to 8 km
1000 to 3000 ft
1500m to 5 km
500 to 1000 ft
800 to 1500m
200 to 500 ft
< 800m
< 200 ft
Symbols :   Thunderstorms  Fog  Heavy snow  Heavy precipitations  Wind > 20 kt






- Airport Elevation : 38 ft


KHRT - Hurlburt Field

CURRENT METAR :
  • 192355Z AUTO 24007KT 10SM CLR 24/21 A3002 RMK AO2 SLP164 T02390208 10271 20239 53002 $

EXPIRED METARs :
  • 192255Z AUTO 23009KT 10SM CLR 25/21 A3001 RMK AO2 SLP160 T02490208 $
  • 192155Z AUTO 23012KT 10SM CLR 26/21 A3001 RMK AO2 SLP160 T02550209 $
  • 192055Z AUTO 23010KT 10SM CLR 26/21 A3002 RMK AO2 SLP164 T02570209 57013 $

TAF TAF KHRT
Valid from the 19 at 18:00 until the 21 at 00:00 UTC


191805Z 1918/2024 21008KT 9999 FEW040 QNH3000INS
BECMG 2001/2002 21008KT 9999 SCT020 BKN200 QNH3002INS
BECMG 2005/2006 18010KT 6000 BR BKN020 QNH2998INS
TEMPO 2010/2014 8000 -SHRA
BECMG 2018/2019 20008KT 8000 -SHRA OVC020 QNH2996INS TX27/2018Z TN17/2011Z LAST NO AMDS AFT 2004 NEXT 2210
KZJX FIR / North America



MET'MAP, your aeronautical weather chart ! - Copyright ORBIFLY December 2007 - Disclaimer

ORBIFLY MET'MAP TEAM :

Programming & Development : Alexandra Zaïnal
Original concept : Baudouin d'Aumeries
Technical & hardware support : Manuel Goepfert
Assistance : Marc-Olivier Méhu




SOURCES & CREDITS :

   NOAA       Earth
Advisory